METAR Data
IDs: Format: Raw Decoded Include TAF

Data at: 0034 UTC 26 Oct 2021

KHYI 252356Z 16006KT 10SM CLR 27/23 A2994 RMK AO2 SLP129 6//// T02670233 10311 20267 53005 PNO $
KHYI 252256Z 15010KT 10SM CLR 28/24 A2992 RMK AO2 SLP122 T02830239 PNO $
KHYI 252156Z 15012KT 10SM CLR 29/23 A2992 RMK AO2 SLP122 T02890233 PNO $
KHYI 252131Z 13010KT 10SM FEW001 29/24 A2992 RMK AO2 PNO $
KHYI 252056Z 14009KT 10SM CLR 31/24 A2992 RMK AO2 SLP122 6//// T03060239 56020 PNO $
KHYI 251956Z 15009KT 110V180 10SM FEW024 31/24 A2993 RMK AO2 SLP125 T03060244 PNO $
KHYI 251856Z 14007KT 10SM FEW024 31/24 A2996 RMK AO2 SLP135 T03060244 PNO $
KHYI 251847Z 17005KT 10SM SCT024 30/24 A2996 RMK AO2 PNO $
KHYI 251756Z 15005KT 10SM BKN019 29/24 A2998 RMK AO2 SLP143 6//// T02890244 10300 20233 58004 PNO $
KHYI 251656Z 24004KT 10SM OVC017 29/24 A2999 RMK AO2 SLP146 T02890244 PNO $
KHYI 251611Z 19004KT 10SM OVC015 27/24 A3000 RMK AO2 PNO $
KHYI 251556Z 23003KT 10SM OVC013 27/24 A3000 RMK AO2 SLP149 T02670244 PNO $
KHYI 251456Z 20003KT 10SM OVC011 24/24 A2999 RMK AO2 SLP148 6//// T02440244 51016 PNO $
KHYI 251424Z 19005KT 10SM OVC011 24/24 A2999 RMK AO2 PNO $
KHYI 251356Z 20005KT 8SM OVC009 24/24 A2998 RMK AO2 SLP143 T02390239 PNO $
KHYI 251256Z 00000KT 6SM BR OVC009 23/23 A2996 RMK AO2 SLP138 T02330233 PNO $
KHYI 251235Z 20003KT 6SM BR OVC009 23/23 A2996 RMK AO2 CIG 004V011 PNO $
KHYI 251213Z 21004KT 4SM BR OVC004 23/23 A2995 RMK AO2 PNO $
KHYI 251156Z 20004KT 2 1/2SM BR OVC004 23/23 A2995 RMK AO2 SLP130 6//// 7//// T02330233 10233 20194 53006 PNO $
KHYI 251127Z AUTO 23005KT 2 1/2SM BR OVC004 23/23 A2993 RMK AO2 PNO $
KHYI 251056Z AUTO 22004KT 5SM BR OVC004 23/23 A2993 RMK AO2 SLP123 T02330233 PNO $
KHYI 250956Z AUTO 21008KT 5SM BR OVC004 23/23 A2992 RMK AO2 SLP122 T02280228 PNO $
KHYI 250932Z AUTO 22006KT 8SM OVC004 22/22 A2993 RMK AO2 CIG 001V007 PNO $
KHYI 250925Z AUTO 22004KT 2SM BR OVC004 22/22 A2993 RMK AO2 CIG 001V007 PNO $
KHYI 250922Z AUTO 22004KT 1SM BR OVC004 22/22 A2993 RMK AO2 CIG 001V007 PNO $
KHYI 250915Z AUTO 21003KT 1/2SM FG OVC004 22/22 A2993 RMK AO2 CIG 001V007 PNO $
KHYI 250906Z AUTO 22003KT 1/4SM FG BKN002 OVC009 22/22 A2993 RMK AO2 PNO $
KHYI 250856Z AUTO 21004KT 1/2SM FG BKN002 OVC009 22/22 A2993 RMK AO2 SLP124 6//// T02170217 50003 PNO $
KHYI 250852Z AUTO 21004KT 1 3/4SM BR BKN002 BKN009 22/22 A2993 RMK AO2 PNO $
KHYI 250848Z AUTO 21003KT 7SM SCT002 BKN009 21/21 A2993 RMK AO2 PNO $
KHYI 250838Z AUTO 21004KT 7SM SCT009 21/21 A2993 RMK AO2 PNO $
KHYI 250756Z AUTO 20005KT 10SM CLR 22/22 A2993 RMK AO2 SLP126 T02170217 PNO $
KHYI 250656Z AUTO 00000KT 10SM CLR 20/20 A2993 RMK AO2 SLP126 T02000200 PNO $
KHYI 250556Z AUTO 00000KT 10SM CLR 21/21 A2992 RMK AO2 SLP123 6//// T02110211 10283 20211 403060206 51016 PNO $
KHYI 250456Z AUTO 18004KT 10SM CLR 23/23 A2992 RMK AO2 SLP122 T02280228 PNO $
KHYI 250356Z AUTO 00000KT 10SM CLR 22/21 A2990 RMK AO2 SLP118 T02170211 PNO $
KHYI 250256Z AUTO 16003KT 10SM CLR 23/22 A2987 RMK AO2 SLP107 6//// T02280217 51013 PNO $
KHYI 250156Z AUTO 14003KT 10SM CLR 24/22 A2986 RMK AO2 SLP103 T02390217 PNO $
KHYI 250056Z 31003KT 10SM BKN045 26/22 A2985 RMK AO2 SLP100 T02560217 PNO $
KHYI 242356Z 19003KT 10SM BKN045 28/22 A2983 RMK AO2 SLP092 6//// T02830217 10306 20261 53006 PNO $
KHYI 242256Z 19008KT 10SM BKN041 29/21 A2982 RMK AO2 SLP089 T02890211 PNO $
KHYI 242156Z 19008KT 10SM FEW039 29/21 A2982 RMK AO2 SLP087 T02940206 PNO $
KHYI 242056Z 20009KT 10SM BKN039 30/21 A2982 RMK AO2 SLP085 6//// T03000206 56027 PNO $
KHYI 241956Z 18006KT 10SM SCT033 BKN044 29/22 A2983 RMK AO2 SLP092 T02890217 PNO $
KHYI 241856Z 18005G14KT 10SM FEW027 SCT035 27/22 A2986 RMK AO2 SLP103 T02720217 PNO $
KHYI 241835Z 16008KT 10SM FEW022 SCT029 BKN040 28/22 A2986 RMK AO2 PNO $
KHYI 241756Z 00000KT 10SM BKN026 OVC043 26/22 A2990 RMK AO2 SLP115 6//// T02610222 10261 20211 58002 PNO $
KHYI 241703Z VRB04KT 10SM SCT017 OVC025 26/23 A2990 RMK AO2 PNO $
KHYI 241656Z VRB05KT 10SM BKN011 BKN017 OVC023 26/23 A2990 RMK AO2 SLP118 T02560228 PNO $
KHYI 241631Z 16007KT 10SM BKN011 BKN017 OVC023 24/23 A2990 RMK AO2 PNO $
KHYI 241623Z 15006KT 10SM SCT011 BKN017 OVC023 24/23 A2990 RMK AO2 PNO $
KHYI 241614Z 17007KT 10SM BKN010 BKN017 OVC021 24/23 A2990 RMK AO2 CIG 007V012 PNO $
KHYI 241556Z 16006KT 10SM BKN006 OVC023 23/23 A2990 RMK AO2 CIG 005V011 SLP118 T02330233 PNO $
KHYI 241551Z 17004KT 10SM BKN006 OVC023 23/23 A2991 RMK AO2 CIG 004V009 PNO $
KHYI 241525Z 13006KT 10SM OVC004 23/23 A2991 RMK AO2 PNO $
KHYI 241456Z 14004KT 8SM OVC002 22/22 A2991 RMK AO2 SLP120 6//// T02220222 53019 PNO $
KHYI 241414Z 14004KT 3SM BR OVC002 22/22 A2989 RMK AO2 PNO $
KHYI 241356Z 13005KT 1 1/2SM BR OVC002 21/21 A2988 RMK AO2 SLP111 T02110211 PNO $
KHYI 241347Z 12005KT 1 1/4SM BR OVC002 21/21 A2988 RMK AO2 PNO $
KHYI 241343Z 12004KT 3/4SM BR OVC002 21/21 A2987 RMK AO2 PNO $
KHYI 241256Z 14003KT 1/4SM FG OVC002 21/21 A2985 RMK AO2 SLP102 T02110211 PNO $
KHYI 241247Z 15004KT 1/2SM FG OVC002 21/21 A2985 RMK AO2 PNO $
KHYI 241238Z 15003KT 3/4SM BR OVC002 21/21 A2985 RMK AO2 PNO $